sensor_id;sensor_type;location;lat;lon;timestamp;temperature;humidity
28177;DHT22;15461;41.652;9.378;2024-03-23T00:51:11;11.60;99.90
28177;DHT22;15461;41.652;9.378;2024-03-23T00:53:37;11.70;99.90
28177;DHT22;15461;41.652;9.378;2024-03-23T00:56:03;11.70;99.90
28177;DHT22;15461;41.652;9.378;2024-03-23T00:58:29;11.70;99.90
28177;DHT22;15461;41.652;9.378;2024-03-23T01:00:55;11.70;99.90
28177;DHT22;15461;41.652;9.378;2024-03-23T01:03:20;11.70;99.90
28177;DHT22;15461;41.652;9.378;2024-03-23T01:05:46;11.70;99.90
28177;DHT22;15461;41.652;9.378;2024-03-23T01:08:14;11.70;99.90
28177;DHT22;15461;41.652;9.378;2024-03-23T01:10:40;11.70;99.90
28177;DHT22;15461;41.652;9.378;2024-03-23T01:13:06;11.70;99.90
28177;DHT22;15461;41.652;9.378;2024-03-23T01:15:32;11.70;99.90
28177;DHT22;15461;41.652;9.378;2024-03-23T01:17:57;11.70;99.90
28177;DHT22;15461;41.652;9.378;2024-03-23T01:20:23;11.90;99.90
28177;DHT22;15461;41.652;9.378;2024-03-23T01:22:49;11.90;99.90
28177;DHT22;15461;41.652;9.378;2024-03-23T01:25:15;11.80;99.90
28177;DHT22;15461;41.652;9.378;2024-03-23T01:27:40;11.80;99.90
28177;DHT22;15461;41.652;9.378;2024-03-23T01:30:07;11.90;99.90
28177;DHT22;15461;41.652;9.378;2024-03-23T01:32:33;11.90;99.90
28177;DHT22;15461;41.652;9.378;2024-03-23T01:34:59;11.80;99.90
28177;DHT22;15461;41.652;9.378;2024-03-23T01:37:24;11.80;99.90
28177;DHT22;15461;41.652;9.378;2024-03-23T01:39:50;11.80;99.90
28177;DHT22;15461;41.652;9.378;2024-03-23T01:42:16;11.80;99.90
28177;DHT22;15461;41.652;9.378;2024-03-23T01:44:42;11.80;99.90
28177;DHT22;15461;41.652;9.378;2024-03-23T01:47:08;11.90;99.90
28177;DHT22;15461;41.652;9.378;2024-03-23T01:49:35;11.90;99.90
28177;DHT22;15461;41.652;9.378;2024-03-23T01:52:02;11.90;99.90
28177;DHT22;15461;41.652;9.378;2024-03-23T01:54:29;11.90;99.90
28177;DHT22;15461;41.652;9.378;2024-03-23T01:56:55;11.90;99.90
28177;DHT22;15461;41.652;9.378;2024-03-23T01:59:21;11.90;99.90
28177;DHT22;15461;41.652;9.378;2024-03-23T02:01:47;11.80;99.90
28177;DHT22;15461;41.652;9.378;2024-03-23T02:04:13;11.80;99.90
28177;DHT22;15461;41.652;9.378;2024-03-23T02:06:39;11.80;99.90
28177;DHT22;15461;41.652;9.378;2024-03-23T02:09:05;11.70;99.90
28177;DHT22;15461;41.652;9.378;2024-03-23T02:11:31;11.70;99.90
28177;DHT22;15461;41.652;9.378;2024-03-23T02:13:56;11.60;99.90
28177;DHT22;15461;41.652;9.378;2024-03-23T02:16:23;11.60;99.90
28177;DHT22;15461;41.652;9.378;2024-03-23T02:18:49;11.60;99.90
28177;DHT22;15461;41.652;9.378;2024-03-23T02:21:15;11.50;99.90
28177;DHT22;15461;41.652;9.378;2024-03-23T02:23:41;11.40;99.90
28177;DHT22;15461;41.652;9.378;2024-03-23T02:26:07;11.40;99.90
28177;DHT22;15461;41.652;9.378;2024-03-23T02:28:32;11.40;99.90
28177;DHT22;15461;41.652;9.378;2024-03-23T02:30:58;11.40;99.90
28177;DHT22;15461;41.652;9.378;2024-03-23T02:33:26;11.40;99.90
28177;DHT22;15461;41.652;9.378;2024-03-23T02:35:56;11.40;99.90
28177;DHT22;15461;41.652;9.378;2024-03-23T02:38:22;11.40;99.90
28177;DHT22;15461;41.652;9.378;2024-03-23T02:40:47;11.40;99.90
28177;DHT22;15461;41.652;9.378;2024-03-23T02:43:13;11.40;99.90
28177;DHT22;15461;41.652;9.378;2024-03-23T02:45:39;11.40;99.90
28177;DHT22;15461;41.652;9.378;2024-03-23T02:48:05;11.40;99.90
28177;DHT22;15461;41.652;9.378;2024-03-23T02:50:31;11.40;99.90
28177;DHT22;15461;41.652;9.378;2024-03-23T02:52:56;11.50;99.90
28177;DHT22;15461;41.652;9.378;2024-03-23T02:55:22;11.40;99.90
28177;DHT22;15461;41.652;9.378;2024-03-23T02:57:48;11.40;99.90
28177;DHT22;15461;41.652;9.378;2024-03-23T03:00:14;11.40;99.90
28177;DHT22;15461;41.652;9.378;2024-03-23T03:02:39;11.40;99.90
28177;DHT22;15461;41.652;9.378;2024-03-23T03:05:06;11.40;99.90
28177;DHT22;15461;41.652;9.378;2024-03-23T03:07:32;11.30;99.90
28177;DHT22;15461;41.652;9.378;2024-03-23T03:09:58;11.30;99.90
28177;DHT22;15461;41.652;9.378;2024-03-23T03:12:23;11.20;99.90
28177;DHT22;15461;41.652;9.378;2024-03-23T03:14:49;11.20;99.90
28177;DHT22;15461;41.652;9.378;2024-03-23T03:17:15;11.20;99.90
28177;DHT22;15461;41.652;9.378;2024-03-23T03:19:41;11.20;99.90
28177;DHT22;15461;41.652;9.378;2024-03-23T03:22:06;11.20;99.90
28177;DHT22;15461;41.652;9.378;2024-03-23T03:24:32;11.20;99.90
28177;DHT22;15461;41.652;9.378;2024-03-23T03:26:58;11.10;99.90
28177;DHT22;15461;41.652;9.378;2024-03-23T03:29:24;11.10;99.90
28177;DHT22;15461;41.652;9.378;2024-03-23T03:31:50;11.10;99.90
28177;DHT22;15461;41.652;9.378;2024-03-23T03:34:16;11.10;99.90
28177;DHT22;15461;41.652;9.378;2024-03-23T03:36:41;11.10;99.90
28177;DHT22;15461;41.652;9.378;2024-03-23T03:39:07;11.00;99.90
28177;DHT22;15461;41.652;9.378;2024-03-23T03:41:33;10.90;99.90
28177;DHT22;15461;41.652;9.378;2024-03-23T03:43:59;10.90;99.90
28177;DHT22;15461;41.652;9.378;2024-03-23T03:46:30;10.90;99.90
28177;DHT22;15461;41.652;9.378;2024-03-23T03:48:56;10.80;99.90
28177;DHT22;15461;41.652;9.378;2024-03-23T03:51:22;10.70;99.90
28177;DHT22;15461;41.652;9.378;2024-03-23T03:53:48;10.70;99.90
28177;DHT22;15461;41.652;9.378;2024-03-23T03:56:14;10.70;99.90
28177;DHT22;15461;41.652;9.378;2024-03-23T03:58:39;10.70;99.90
28177;DHT22;15461;41.652;9.378;2024-03-23T04:01:05;10.60;99.90
28177;DHT22;15461;41.652;9.378;2024-03-23T04:03:31;10.50;99.90
28177;DHT22;15461;41.652;9.378;2024-03-23T04:05:57;10.40;99.90
28177;DHT22;15461;41.652;9.378;2024-03-23T04:08:23;10.30;99.90
28177;DHT22;15461;41.652;9.378;2024-03-23T04:10:49;10.20;99.90
28177;DHT22;15461;41.652;9.378;2024-03-23T04:13:15;10.10;99.90
28177;DHT22;15461;41.652;9.378;2024-03-23T04:15:42;10.10;99.90
28177;DHT22;15461;41.652;9.378;2024-03-23T04:18:07;10.10;99.90
28177;DHT22;15461;41.652;9.378;2024-03-23T04:20:33;10.10;99.90
28177;DHT22;15461;41.652;9.378;2024-03-23T04:22:59;10.10;99.90
28177;DHT22;15461;41.652;9.378;2024-03-23T04:25:25;10.10;99.90
28177;DHT22;15461;41.652;9.378;2024-03-23T04:27:51;10.10;99.90
28177;DHT22;15461;41.652;9.378;2024-03-23T04:30:17;10.00;99.90
28177;DHT22;15461;41.652;9.378;2024-03-23T04:32:43;10.00;99.90
28177;DHT22;15461;41.652;9.378;2024-03-23T04:35:09;10.00;99.90
28177;DHT22;15461;41.652;9.378;2024-03-23T04:37:36;10.00;99.90
28177;DHT22;15461;41.652;9.378;2024-03-23T04:40:03;10.00;99.90
28177;DHT22;15461;41.652;9.378;2024-03-23T04:42:29;10.00;99.90
28177;DHT22;15461;41.652;9.378;2024-03-23T04:44:55;9.90;99.90
28177;DHT22;15461;41.652;9.378;2024-03-23T04:47:21;9.80;99.90
28177;DHT22;15461;41.652;9.378;2024-03-23T04:49:47;9.80;99.90
28177;DHT22;15461;41.652;9.378;2024-03-23T04:52:13;9.80;99.90
28177;DHT22;15461;41.652;9.378;2024-03-23T04:54:39;9.80;99.90
28177;DHT22;15461;41.652;9.378;2024-03-23T04:57:08;9.70;99.90
28177;DHT22;15461;41.652;9.378;2024-03-23T04:59:33;9.60;99.90
28177;DHT22;15461;41.652;9.378;2024-03-23T05:01:59;9.60;99.90
28177;DHT22;15461;41.652;9.378;2024-03-23T05:04:26;9.60;99.90
28177;DHT22;15461;41.652;9.378;2024-03-23T05:06:52;9.50;99.90
28177;DHT22;15461;41.652;9.378;2024-03-23T05:09:18;9.50;99.90
28177;DHT22;15461;41.652;9.378;2024-03-23T05:11:43;9.50;99.90
28177;DHT22;15461;41.652;9.378;2024-03-23T05:14:09;9.40;99.90
28177;DHT22;15461;41.652;9.378;2024-03-23T05:16:35;9.40;99.90
28177;DHT22;15461;41.652;9.378;2024-03-23T05:19:01;9.30;99.90
28177;DHT22;15461;41.652;9.378;2024-03-23T05:21:27;9.30;99.90
28177;DHT22;15461;41.652;9.378;2024-03-23T05:23:55;9.30;99.90
28177;DHT22;15461;41.652;9.378;2024-03-23T05:26:22;9.30;99.90
28177;DHT22;15461;41.652;9.378;2024-03-23T05:28:48;9.20;99.90
28177;DHT22;15461;41.652;9.378;2024-03-23T05:31:24;9.20;99.90
28177;DHT22;15461;41.652;9.378;2024-03-23T05:33:50;9.20;99.90
28177;DHT22;15461;41.652;9.378;2024-03-23T05:36:16;9.30;99.90
28177;DHT22;15461;41.652;9.378;2024-03-23T05:38:42;9.30;99.90
28177;DHT22;15461;41.652;9.378;2024-03-23T05:41:08;9.30;99.90
28177;DHT22;15461;41.652;9.378;2024-03-23T05:43:34;9.40;99.90
28177;DHT22;15461;41.652;9.378;2024-03-23T05:46:00;9.50;99.90
28177;DHT22;15461;41.652;9.378;2024-03-23T05:48:31;9.50;99.90
28177;DHT22;15461;41.652;9.378;2024-03-23T05:50:57;9.50;99.90
28177;DHT22;15461;41.652;9.378;2024-03-23T05:53:24;9.60;99.90
28177;DHT22;15461;41.652;9.378;2024-03-23T05:55:50;9.70;99.90
28177;DHT22;15461;41.652;9.378;2024-03-23T05:58:17;9.70;99.90
28177;DHT22;15461;41.652;9.378;2024-03-23T06:00:44;9.80;99.90
28177;DHT22;15461;41.652;9.378;2024-03-23T06:03:10;10.00;99.90
28177;DHT22;15461;41.652;9.378;2024-03-23T06:05:39;10.10;99.90
28177;DHT22;15461;41.652;9.378;2024-03-23T06:08:05;10.40;99.90
28177;DHT22;15461;41.652;9.378;2024-03-23T06:10:32;10.70;99.90
28177;DHT22;15461;41.652;9.378;2024-03-23T06:12:58;10.80;99.90
28177;DHT22;15461;41.652;9.378;2024-03-23T06:15:25;10.90;99.90
28177;DHT22;15461;41.652;9.378;2024-03-23T06:17:52;11.00;99.90
28177;DHT22;15461;41.652;9.378;2024-03-23T06:20:18;11.00;99.90
28177;DHT22;15461;41.652;9.378;2024-03-23T06:22:44;11.00;99.90
28177;DHT22;15461;41.652;9.378;2024-03-23T06:25:10;11.00;99.90
28177;DHT22;15461;41.652;9.378;2024-03-23T06:27:38;11.10;99.90
28177;DHT22;15461;41.652;9.378;2024-03-23T06:30:05;11.10;99.90
28177;DHT22;15461;41.652;9.378;2024-03-23T06:32:31;11.20;99.90
28177;DHT22;15461;41.652;9.378;2024-03-23T06:34:57;11.30;99.90
28177;DHT22;15461;41.652;9.378;2024-03-23T06:37:22;11.40;99.90
28177;DHT22;15461;41.652;9.378;2024-03-23T06:39:48;11.60;99.90
28177;DHT22;15461;41.652;9.378;2024-03-23T06:42:14;11.70;99.90
28177;DHT22;15461;41.652;9.378;2024-03-23T06:44:40;11.90;99.90
28177;DHT22;15461;41.652;9.378;2024-03-23T06:47:06;12.10;99.90
28177;DHT22;15461;41.652;9.378;2024-03-23T06:49:32;12.30;99.90
28177;DHT22;15461;41.652;9.378;2024-03-23T06:51:57;12.40;99.90
28177;DHT22;15461;41.652;9.378;2024-03-23T06:54:24;12.50;99.90
28177;DHT22;15461;41.652;9.378;2024-03-23T06:56:50;12.60;99.90
28177;DHT22;15461;41.652;9.378;2024-03-23T06:59:16;12.70;99.90
28177;DHT22;15461;41.652;9.378;2024-03-23T07:01:42;12.80;99.90
28177;DHT22;15461;41.652;9.378;2024-03-23T07:04:08;12.90;99.90
28177;DHT22;15461;41.652;9.378;2024-03-23T07:06:33;12.90;99.90
28177;DHT22;15461;41.652;9.378;2024-03-23T07:08:59;13.00;99.90
28177;DHT22;15461;41.652;9.378;2024-03-23T07:11:25;13.20;99.90
28177;DHT22;15461;41.652;9.378;2024-03-23T07:13:55;13.40;99.90
28177;DHT22;15461;41.652;9.378;2024-03-23T07:16:20;13.60;99.90
28177;DHT22;15461;41.652;9.378;2024-03-23T07:18:46;13.70;99.90
28177;DHT22;15461;41.652;9.378;2024-03-23T07:21:14;13.90;99.90
28177;DHT22;15461;41.652;9.378;2024-03-23T07:23:42;14.00;99.90
28177;DHT22;15461;41.652;9.378;2024-03-23T07:26:10;14.20;99.90
28177;DHT22;15461;41.652;9.378;2024-03-23T07:28:37;14.40;99.90
28177;DHT22;15461;41.652;9.378;2024-03-23T07:31:10;14.60;99.90
28177;DHT22;15461;41.652;9.378;2024-03-23T07:33:41;14.90;99.90
28177;DHT22;15461;41.652;9.378;2024-03-23T07:36:07;15.10;99.90
28177;DHT22;15461;41.652;9.378;2024-03-23T07:38:33;15.20;99.90
28177;DHT22;15461;41.652;9.378;2024-03-23T07:41:08;15.40;99.90
28177;DHT22;15461;41.652;9.378;2024-03-23T07:43:35;15.50;99.90
28177;DHT22;15461;41.652;9.378;2024-03-23T07:46:01;15.60;99.90
28177;DHT22;15461;41.652;9.378;2024-03-23T07:48:27;15.80;99.90
28177;DHT22;15461;41.652;9.378;2024-03-23T07:51:16;16.00;99.90
28177;DHT22;15461;41.652;9.378;2024-03-23T07:53:44;16.10;99.90
28177;DHT22;15461;41.652;9.378;2024-03-23T07:56:11;16.20;99.90
28177;DHT22;15461;41.652;9.378;2024-03-23T07:58:38;16.40;99.90
28177;DHT22;15461;41.652;9.378;2024-03-23T08:01:05;16.50;99.90
28177;DHT22;15461;41.652;9.378;2024-03-23T08:03:36;16.60;99.90
28177;DHT22;15461;41.652;9.378;2024-03-23T08:06:13;16.80;99.90
28177;DHT22;15461;41.652;9.378;2024-03-23T08:08:40;17.10;99.90
28177;DHT22;15461;41.652;9.378;2024-03-23T08:11:06;17.30;99.90
28177;DHT22;15461;41.652;9.378;2024-03-23T08:13:33;17.50;99.90
28177;DHT22;15461;41.652;9.378;2024-03-23T08:16:00;17.70;99.90
28177;DHT22;15461;41.652;9.378;2024-03-23T08:18:27;18.00;99.90
28177;DHT22;15461;41.652;9.378;2024-03-23T08:21:00;18.20;99.90
28177;DHT22;15461;41.652;9.378;2024-03-23T08:23:29;18.30;99.90
28177;DHT22;15461;41.652;9.378;2024-03-23T08:26:01;18.40;99.90
28177;DHT22;15461;41.652;9.378;2024-03-23T08:28:27;18.40;99.90
28177;DHT22;15461;41.652;9.378;2024-03-23T08:30:55;18.50;99.90
28177;DHT22;15461;41.652;9.378;2024-03-23T08:33:22;18.50;99.90
28177;DHT22;15461;41.652;9.378;2024-03-23T08:35:56;18.60;99.90
28177;DHT22;15461;41.652;9.378;2024-03-23T08:38:23;18.70;99.90
28177;DHT22;15461;41.652;9.378;2024-03-23T08:40:57;18.70;99.90
28177;DHT22;15461;41.652;9.378;2024-03-23T08:43:23;18.90;99.90
28177;DHT22;15461;41.652;9.378;2024-03-23T08:45:48;18.90;99.90
28177;DHT22;15461;41.652;9.378;2024-03-23T08:48:14;19.10;99.90
28177;DHT22;15461;41.652;9.378;2024-03-23T08:50:40;19.20;99.90
28177;DHT22;15461;41.652;9.378;2024-03-23T08:53:06;19.10;99.90
28177;DHT22;15461;41.652;9.378;2024-03-23T08:55:31;19.20;99.90
28177;DHT22;15461;41.652;9.378;2024-03-23T08:57:57;19.20;99.90
28177;DHT22;15461;41.652;9.378;2024-03-23T09:00:23;19.20;99.90
28177;DHT22;15461;41.652;9.378;2024-03-23T09:02:48;19.10;99.90
28177;DHT22;15461;41.652;9.378;2024-03-23T09:05:14;19.10;99.90
28177;DHT22;15461;41.652;9.378;2024-03-23T09:07:40;19.10;99.90
28177;DHT22;15461;41.652;9.378;2024-03-23T09:10:07;19.10;99.90
28177;DHT22;15461;41.652;9.378;2024-03-23T09:12:33;19.00;99.90
28177;DHT22;15461;41.652;9.378;2024-03-23T09:15:00;19.00;99.90
28177;DHT22;15461;41.652;9.378;2024-03-23T09:17:25;19.10;99.90
28177;DHT22;15461;41.652;9.378;2024-03-23T09:19:51;19.20;99.90
28177;DHT22;15461;41.652;9.378;2024-03-23T09:22:17;19.20;99.90
28177;DHT22;15461;41.652;9.378;2024-03-23T09:24:42;19.20;99.90
28177;DHT22;15461;41.652;9.378;2024-03-23T09:27:08;19.20;99.90
28177;DHT22;15461;41.652;9.378;2024-03-23T09:29:34;19.30;99.90
28177;DHT22;15461;41.652;9.378;2024-03-23T09:32:00;19.30;99.90
28177;DHT22;15461;41.652;9.378;2024-03-23T09:34:25;19.40;99.90
28177;DHT22;15461;41.652;9.378;2024-03-23T09:36:52;19.50;99.90
28177;DHT22;15461;41.652;9.378;2024-03-23T09:39:18;19.40;99.90
28177;DHT22;15461;41.652;9.378;2024-03-23T09:41:45;19.60;99.90
28177;DHT22;15461;41.652;9.378;2024-03-23T09:44:11;19.60;99.90
28177;DHT22;15461;41.652;9.378;2024-03-23T09:46:37;19.70;99.90
28177;DHT22;15461;41.652;9.378;2024-03-23T09:49:08;19.90;99.90
28177;DHT22;15461;41.652;9.378;2024-03-23T09:51:36;20.00;99.90
28177;DHT22;15461;41.652;9.378;2024-03-23T09:54:02;20.00;99.90
28177;DHT22;15461;41.652;9.378;2024-03-23T09:56:28;19.90;99.90
28177;DHT22;15461;41.652;9.378;2024-03-23T09:59:01;19.90;99.90
28177;DHT22;15461;41.652;9.378;2024-03-23T10:01:30;19.80;99.90
28177;DHT22;15461;41.652;9.378;2024-03-23T10:03:55;19.80;99.90
28177;DHT22;15461;41.652;9.378;2024-03-23T10:06:22;19.80;99.90
28177;DHT22;15461;41.652;9.378;2024-03-23T10:08:51;19.80;99.90
28177;DHT22;15461;41.652;9.378;2024-03-23T10:11:18;19.80;99.90
28177;DHT22;15461;41.652;9.378;2024-03-23T10:13:44;19.90;99.90
28177;DHT22;15461;41.652;9.378;2024-03-23T10:16:23;19.90;99.90
28177;DHT22;15461;41.652;9.378;2024-03-23T10:18:49;19.80;99.90
28177;DHT22;15461;41.652;9.378;2024-03-23T10:21:16;19.90;99.90
28177;DHT22;15461;41.652;9.378;2024-03-23T10:23:42;19.90;99.90
28177;DHT22;15461;41.652;9.378;2024-03-23T10:26:21;19.90;99.90
28177;DHT22;15461;41.652;9.378;2024-03-23T10:28:58;19.90;99.90
28177;DHT22;15461;41.652;9.378;2024-03-23T10:31:30;20.00;99.90
28177;DHT22;15461;41.652;9.378;2024-03-23T10:33:56;19.90;99.90
28177;DHT22;15461;41.652;9.378;2024-03-23T10:36:25;19.90;99.90
28177;DHT22;15461;41.652;9.378;2024-03-23T10:38:54;19.90;99.90
28177;DHT22;15461;41.652;9.378;2024-03-23T10:41:20;19.90;99.90
28177;DHT22;15461;41.652;9.378;2024-03-23T10:43:47;19.90;99.90
28177;DHT22;15461;41.652;9.378;2024-03-23T10:46:13;20.00;99.90
28177;DHT22;15461;41.652;9.378;2024-03-23T10:48:39;20.10;99.90
28177;DHT22;15461;41.652;9.378;2024-03-23T10:51:07;20.20;99.90
28177;DHT22;15461;41.652;9.378;2024-03-23T10:53:34;20.20;99.90
28177;DHT22;15461;41.652;9.378;2024-03-23T10:56:03;20.30;99.90
28177;DHT22;15461;41.652;9.378;2024-03-23T10:58:38;20.50;99.90
28177;DHT22;15461;41.652;9.378;2024-03-23T11:01:04;20.60;99.90
28177;DHT22;15461;41.652;9.378;2024-03-23T11:03:38;20.70;99.90
28177;DHT22;15461;41.652;9.378;2024-03-23T11:06:05;20.80;99.90
28177;DHT22;15461;41.652;9.378;2024-03-23T11:08:36;20.90;99.90
28177;DHT22;15461;41.652;9.378;2024-03-23T11:11:23;20.80;99.90
28177;DHT22;15461;41.652;9.378;2024-03-23T11:13:51;20.80;99.90
28177;DHT22;15461;41.652;9.378;2024-03-23T11:16:24;20.70;99.90
28177;DHT22;15461;41.652;9.378;2024-03-23T11:18:53;20.70;99.90
28177;DHT22;15461;41.652;9.378;2024-03-23T11:21:55;20.70;99.90
28177;DHT22;15461;41.652;9.378;2024-03-23T11:24:21;20.70;99.90
28177;DHT22;15461;41.652;9.378;2024-03-23T11:26:48;20.80;99.90
28177;DHT22;15461;41.652;9.378;2024-03-23T11:29:16;20.70;99.90
28177;DHT22;15461;41.652;9.378;2024-03-23T11:31:52;20.80;99.90
28177;DHT22;15461;41.652;9.378;2024-03-23T11:34:19;20.70;99.90
28177;DHT22;15461;41.652;9.378;2024-03-23T11:36:46;20.70;99.90
28177;DHT22;15461;41.652;9.378;2024-03-23T11:39:16;20.70;99.90
28177;DHT22;15461;41.652;9.378;2024-03-23T11:44:19;20.70;99.90
28177;DHT22;15461;41.652;9.378;2024-03-23T11:46:46;20.70;99.90
28177;DHT22;15461;41.652;9.378;2024-03-23T11:49:26;20.60;99.90
28177;DHT22;15461;41.652;9.378;2024-03-23T11:51:53;20.70;99.90
28177;DHT22;15461;41.652;9.378;2024-03-23T11:54:24;20.70;99.90
28177;DHT22;15461;41.652;9.378;2024-03-23T11:57:02;20.70;99.90
28177;DHT22;15461;41.652;9.378;2024-03-23T11:59:37;20.50;99.90
28177;DHT22;15461;41.652;9.378;2024-03-23T12:02:11;20.40;99.90
28177;DHT22;15461;41.652;9.378;2024-03-23T12:04:39;20.00;99.90
28177;DHT22;15461;41.652;9.378;2024-03-23T12:07:10;19.70;99.90
28177;DHT22;15461;41.652;9.378;2024-03-23T12:09:36;19.60;99.90
28177;DHT22;15461;41.652;9.378;2024-03-23T12:14:36;19.70;99.90
28177;DHT22;15461;41.652;9.378;2024-03-23T12:17:12;19.80;99.90
28177;DHT22;15461;41.652;9.378;2024-03-23T12:19:39;20.00;99.90
28177;DHT22;15461;41.652;9.378;2024-03-23T12:22:05;20.00;99.90
28177;DHT22;15461;41.652;9.378;2024-03-23T12:24:32;20.10;99.90
28177;DHT22;15461;41.652;9.378;2024-03-23T12:27:04;20.10;99.90
28177;DHT22;15461;41.652;9.378;2024-03-23T12:29:31;20.10;99.90
28177;DHT22;15461;41.652;9.378;2024-03-23T12:32:02;20.10;99.90
28177;DHT22;15461;41.652;9.378;2024-03-23T12:34:28;20.10;99.90
28177;DHT22;15461;41.652;9.378;2024-03-23T12:36:56;20.10;99.90
28177;DHT22;15461;41.652;9.378;2024-03-23T12:39:22;20.00;99.90
28177;DHT22;15461;41.652;9.378;2024-03-23T12:41:48;20.10;99.90
28177;DHT22;15461;41.652;9.378;2024-03-23T12:44:14;20.10;99.90
28177;DHT22;15461;41.652;9.378;2024-03-23T12:46:41;19.80;99.90
28177;DHT22;15461;41.652;9.378;2024-03-23T12:49:07;19.70;99.90
28177;DHT22;15461;41.652;9.378;2024-03-23T12:51:34;19.50;99.90
28177;DHT22;15461;41.652;9.378;2024-03-23T12:54:00;19.50;99.90
28177;DHT22;15461;41.652;9.378;2024-03-23T12:56:25;19.60;99.90
28177;DHT22;15461;41.652;9.378;2024-03-23T12:58:54;19.70;99.90
28177;DHT22;15461;41.652;9.378;2024-03-23T13:01:21;19.80;99.90
28177;DHT22;15461;41.652;9.378;2024-03-23T13:03:47;19.80;99.90
28177;DHT22;15461;41.652;9.378;2024-03-23T13:06:13;19.80;99.90
28177;DHT22;15461;41.652;9.378;2024-03-23T13:08:39;19.70;99.90
28177;DHT22;15461;41.652;9.378;2024-03-23T13:11:08;19.70;99.90
28177;DHT22;15461;41.652;9.378;2024-03-23T13:13:36;19.70;99.90
28177;DHT22;15461;41.652;9.378;2024-03-23T13:16:02;19.80;99.90
28177;DHT22;15461;41.652;9.378;2024-03-23T13:18:30;19.90;99.90
28177;DHT22;15461;41.652;9.378;2024-03-23T13:20:55;19.90;99.90
28177;DHT22;15461;41.652;9.378;2024-03-23T13:23:22;20.00;99.90
28177;DHT22;15461;41.652;9.378;2024-03-23T13:25:55;19.90;99.90
28177;DHT22;15461;41.652;9.378;2024-03-23T13:28:24;19.80;99.90
28177;DHT22;15461;41.652;9.378;2024-03-23T13:30:53;19.90;99.90
28177;DHT22;15461;41.652;9.378;2024-03-23T13:33:19;20.00;99.90
28177;DHT22;15461;41.652;9.378;2024-03-23T13:35:51;19.90;99.90
28177;DHT22;15461;41.652;9.378;2024-03-23T13:38:17;19.90;99.90
28177;DHT22;15461;41.652;9.378;2024-03-23T13:40:52;19.60;99.90
28177;DHT22;15461;41.652;9.378;2024-03-23T13:43:18;19.40;99.90
28177;DHT22;15461;41.652;9.378;2024-03-23T13:45:46;19.10;99.90
28177;DHT22;15461;41.652;9.378;2024-03-23T13:48:12;18.80;99.90
28177;DHT22;15461;41.652;9.378;2024-03-23T13:50:38;18.60;99.90
28177;DHT22;15461;41.652;9.378;2024-03-23T13:53:03;18.30;99.90
28177;DHT22;15461;41.652;9.378;2024-03-23T13:55:29;18.10;99.90
28177;DHT22;15461;41.652;9.378;2024-03-23T13:57:55;17.90;99.90
28177;DHT22;15461;41.652;9.378;2024-03-23T14:00:21;17.80;99.90
28177;DHT22;15461;41.652;9.378;2024-03-23T14:02:47;17.70;99.90
28177;DHT22;15461;41.652;9.378;2024-03-23T14:05:13;17.70;99.90
28177;DHT22;15461;41.652;9.378;2024-03-23T14:07:38;17.60;99.90
28177;DHT22;15461;41.652;9.378;2024-03-23T14:10:04;17.70;99.90
28177;DHT22;15461;41.652;9.378;2024-03-23T14:12:32;17.70;99.90
28177;DHT22;15461;41.652;9.378;2024-03-23T14:14:58;17.70;99.90
28177;DHT22;15461;41.652;9.378;2024-03-23T14:17:23;17.70;99.90
28177;DHT22;15461;41.652;9.378;2024-03-23T14:19:51;17.70;99.90
28177;DHT22;15461;41.652;9.378;2024-03-23T14:22:17;17.70;99.90
28177;DHT22;15461;41.652;9.378;2024-03-23T14:24:45;17.70;99.90
28177;DHT22;15461;41.652;9.378;2024-03-23T14:27:11;17.70;99.90
28177;DHT22;15461;41.652;9.378;2024-03-23T14:29:36;17.70;99.90
28177;DHT22;15461;41.652;9.378;2024-03-23T14:32:02;17.70;99.90
28177;DHT22;15461;41.652;9.378;2024-03-23T14:34:28;17.70;99.90
28177;DHT22;15461;41.652;9.378;2024-03-23T14:36:54;17.70;99.90
28177;DHT22;15461;41.652;9.378;2024-03-23T14:39:23;17.80;99.90
28177;DHT22;15461;41.652;9.378;2024-03-23T14:41:50;17.80;99.90
28177;DHT22;15461;41.652;9.378;2024-03-23T14:44:16;17.80;99.90
28177;DHT22;15461;41.652;9.378;2024-03-23T14:46:42;17.90;99.90
28177;DHT22;15461;41.652;9.378;2024-03-23T14:49:08;18.10;99.90
28177;DHT22;15461;41.652;9.378;2024-03-23T14:51:34;18.10;99.90
28177;DHT22;15461;41.652;9.378;2024-03-23T14:54:00;18.20;99.90
28177;DHT22;15461;41.652;9.378;2024-03-23T14:56:26;18.20;99.90
28177;DHT22;15461;41.652;9.378;2024-03-23T14:58:54;18.40;99.90
28177;DHT22;15461;41.652;9.378;2024-03-23T15:01:21;18.70;99.90
28177;DHT22;15461;41.652;9.378;2024-03-23T15:03:47;18.80;99.90
28177;DHT22;15461;41.652;9.378;2024-03-23T15:06:13;19.10;99.90
28177;DHT22;15461;41.652;9.378;2024-03-23T15:08:39;19.20;99.90
28177;DHT22;15461;41.652;9.378;2024-03-23T15:11:06;19.30;99.90
28177;DHT22;15461;41.652;9.378;2024-03-23T15:13:36;19.30;99.90
28177;DHT22;15461;41.652;9.378;2024-03-23T15:16:02;19.30;99.90
28177;DHT22;15461;41.652;9.378;2024-03-23T15:18:34;19.30;99.90
28177;DHT22;15461;41.652;9.378;2024-03-23T15:21:02;19.30;99.90
28177;DHT22;15461;41.652;9.378;2024-03-23T15:23:29;19.20;99.90
28177;DHT22;15461;41.652;9.378;2024-03-23T15:25:59;19.20;99.90
28177;DHT22;15461;41.652;9.378;2024-03-23T15:28:27;19.30;99.90
28177;DHT22;15461;41.652;9.378;2024-03-23T15:31:03;19.30;99.90
28177;DHT22;15461;41.652;9.378;2024-03-23T15:33:29;19.30;99.90
28177;DHT22;15461;41.652;9.378;2024-03-23T15:35:59;19.20;99.90
28177;DHT22;15461;41.652;9.378;2024-03-23T15:38:24;19.20;99.90
28177;DHT22;15461;41.652;9.378;2024-03-23T15:40:53;19.20;99.90
28177;DHT22;15461;41.652;9.378;2024-03-23T15:43:19;19.20;99.90
28177;DHT22;15461;41.652;9.378;2024-03-23T15:45:54;19.10;99.90
28177;DHT22;15461;41.652;9.378;2024-03-23T15:48:19;19.10;99.90
28177;DHT22;15461;41.652;9.378;2024-03-23T15:53:22;19.00;99.90
28177;DHT22;15461;41.652;9.378;2024-03-23T15:55:58;18.80;99.90
28177;DHT22;15461;41.652;9.378;2024-03-23T15:58:24;18.70;99.90
28177;DHT22;15461;41.652;9.378;2024-03-23T16:01:00;18.60;99.90
28177;DHT22;15461;41.652;9.378;2024-03-23T16:03:27;18.50;99.90
28177;DHT22;15461;41.652;9.378;2024-03-23T16:05:59;18.50;99.90
28177;DHT22;15461;41.652;9.378;2024-03-23T16:08:26;18.50;99.90
28177;DHT22;15461;41.652;9.378;2024-03-23T16:10:52;18.40;99.90
28177;DHT22;15461;41.652;9.378;2024-03-23T16:13:19;18.40;99.90
28177;DHT22;15461;41.652;9.378;2024-03-23T16:15:45;18.30;99.90
28177;DHT22;15461;41.652;9.378;2024-03-23T16:18:11;18.10;99.90
28177;DHT22;15461;41.652;9.378;2024-03-23T16:20:37;18.10;99.90
28177;DHT22;15461;41.652;9.378;2024-03-23T16:23:03;18.00;99.90
28177;DHT22;15461;41.652;9.378;2024-03-23T16:25:29;18.00;99.90
28177;DHT22;15461;41.652;9.378;2024-03-23T16:27:56;17.80;99.90
28177;DHT22;15461;41.652;9.378;2024-03-23T16:30:22;17.80;99.90